Time;durP1;ratioP1;P1;durP2;ratioP2;P2;SDS_P1;SDS_P2;PMS_P1;PMS_P2;Temp;Humidity;BMP_temperature;BMP_pressure;BME280_temperature;BME280_humidity;BME280_pressure;Samples;Min_cycle;Max_cycle;Signal;HPM_P1;HPM_P2
2023/12/09 00:01:49;;;;;;;82.68;15.00;;;9.10;99.90;;;;;;5004115;28;20031;-59
2023/12/09 00:04:14;;;;;;;77.55;15.43;;;9.00;99.90;;;;;;5004076;28;20035;-59
2023/12/09 00:06:46;;;;;;;68.30;16.20;;;9.00;99.90;;;;;;5004122;28;20040;-59
2023/12/09 00:09:12;;;;;;;75.97;17.08;;;9.00;99.90;;;;;;5003941;28;20083;-59
2023/12/09 00:11:38;;;;;;;55.35;15.43;;;9.00;99.90;;;;;;5004495;28;20053;-59
2023/12/09 00:14:04;;;;;;;58.72;14.98;;;9.00;99.90;;;;;;5005133;28;20368;-59
2023/12/09 00:16:30;;;;;;;53.28;17.40;;;9.00;99.90;;;;;;5005644;28;20033;-60
2023/12/09 00:18:57;;;;;;;61.72;16.45;;;9.00;99.90;;;;;;5003993;28;20390;-60
2023/12/09 00:21:23;;;;;;;58.05;17.38;;;9.00;99.90;;;;;;5003707;28;20087;-59
2023/12/09 00:23:48;;;;;;;57.13;17.20;;;9.00;99.90;;;;;;5005244;28;20034;-59
2023/12/09 00:26:14;;;;;;;57.58;17.25;;;9.00;99.90;;;;;;5004865;28;20486;-59
2023/12/09 00:28:40;;;;;;;61.10;16.50;;;9.00;99.90;;;;;;5004098;28;20034;-59
2023/12/09 00:31:05;;;;;;;66.70;18.40;;;9.00;99.90;;;;;;5003867;28;20489;-59
2023/12/09 00:33:31;;;;;;;61.33;17.92;;;9.00;99.90;;;;;;5003877;28;20075;-59
2023/12/09 00:35:56;;;;;;;49.83;17.63;;;9.00;99.90;;;;;;5003554;28;20034;-59
2023/12/09 00:38:22;;;;;;;60.65;19.63;;;9.00;99.90;;;;;;5005055;28;20212;-59
2023/12/09 00:40:48;;;;;;;60.65;18.60;;;9.00;99.90;;;;;;5003436;28;20053;-59
2023/12/09 00:43:13;;;;;;;62.70;18.77;;;9.00;99.90;;;;;;5004949;28;20026;-59
2023/12/09 00:45:39;;;;;;;58.95;18.98;;;9.00;99.90;;;;;;5003635;28;20038;-59
2023/12/09 00:48:04;;;;;;;65.10;20.33;;;9.00;99.90;;;;;;5004769;28;20385;-59
2023/12/09 00:50:30;;;;;;;62.70;20.45;;;9.00;99.90;;;;;;4987641;28;20023;-59
2023/12/09 00:52:56;;;;;;;58.47;22.63;;;9.00;99.90;;;;;;5004047;28;20042;-60
2023/12/09 00:55:21;;;;;;;57.40;21.33;;;9.00;99.90;;;;;;5004156;28;20026;-59
2023/12/09 00:57:47;;;;;;;57.63;21.33;;;9.00;99.90;;;;;;5005757;28;20041;-59
2023/12/09 01:00:13;;;;;;;50.95;20.35;;;9.00;99.90;;;;;;5003409;28;20059;-59
2023/12/09 01:02:39;;;;;;;63.88;18.63;;;9.00;99.90;;;;;;5004576;28;20086;-59
2023/12/09 01:05:05;;;;;;;58.15;19.25;;;9.00;99.90;;;;;;5003365;28;20041;-59
2023/12/09 01:07:31;;;;;;;64.80;19.70;;;9.00;99.90;;;;;;5003081;28;20172;-59
2023/12/09 01:09:56;;;;;;;53.55;18.33;;;8.90;99.90;;;;;;5003309;28;20022;-59
2023/12/09 01:12:22;;;;;;;50.03;18.65;;;9.00;99.90;;;;;;5003076;28;20029;-59
2023/12/09 01:14:47;;;;;;;54.40;17.80;;;9.00;99.90;;;;;;5003288;28;20107;-59
2023/12/09 01:17:13;;;;;;;65.25;18.73;;;8.90;99.90;;;;;;5004840;28;20041;-59
2023/12/09 01:19:38;;;;;;;50.03;19.35;;;8.90;99.90;;;;;;5004581;28;20053;-59
2023/12/09 01:22:04;;;;;;;42.42;17.50;;;9.00;99.90;;;;;;5003415;28;20026;-59
2023/12/09 01:24:30;;;;;;;59.10;19.30;;;9.00;99.90;;;;;;5004101;28;20062;-59
2023/12/09 01:26:55;;;;;;;55.40;19.08;;;8.90;99.90;;;;;;4986415;28;20037;-59
2023/12/09 01:29:21;;;;;;;68.40;19.77;;;8.90;99.90;;;;;;5004023;28;20042;-59
2023/12/09 01:31:46;;;;;;;48.53;17.58;;;8.90;99.90;;;;;;5002852;28;20098;-59
2023/12/09 01:34:12;;;;;;;58.65;18.15;;;8.90;99.90;;;;;;4986616;28;20023;-59
2023/12/09 01:36:37;;;;;;;58.95;17.90;;;8.90;99.90;;;;;;5004037;28;20058;-59
2023/12/09 01:39:03;;;;;;;57.45;18.55;;;8.90;99.90;;;;;;5002721;28;20034;-59
2023/12/09 01:41:29;;;;;;;49.75;18.63;;;9.00;99.90;;;;;;4986559;28;20500;-59
2023/12/09 01:43:54;;;;;;;48.55;18.63;;;8.90;99.90;;;;;;5004063;28;20030;-59
2023/12/09 01:46:20;;;;;;;42.53;17.95;;;8.90;99.90;;;;;;5002696;28;20394;-59
2023/12/09 01:48:46;;;;;;;43.28;16.83;;;8.90;99.90;;;;;;4984426;28;20022;-59
2023/12/09 01:51:12;;;;;;;44.22;17.58;;;8.90;99.90;;;;;;5000488;28;20535;-59
2023/12/09 01:53:37;;;;;;;32.63;15.15;;;8.90;99.90;;;;;;5000392;28;20089;-60
2023/12/09 01:56:05;;;;;;;48.95;16.55;;;8.90;99.90;;;;;;5001381;28;20022;-59
2023/12/09 01:58:31;;;;;;;37.50;15.68;;;8.90;99.90;;;;;;5003884;28;20026;-59
2023/12/09 02:00:56;;;;;;;39.47;15.73;;;8.90;99.90;;;;;;5003831;28;20054;-59
2023/12/09 02:03:22;;;;;;;45.20;16.40;;;8.90;99.90;;;;;;5004770;28;20363;-59
2023/12/09 02:05:47;;;;;;;37.88;15.73;;;8.90;99.90;;;;;;5005816;28;20045;-59
2023/12/09 02:08:13;;;;;;;49.90;15.93;;;8.90;99.90;;;;;;5005739;28;20041;-59
2023/12/09 02:10:39;;;;;;;43.30;15.55;;;8.90;99.90;;;;;;5005748;28;20027;-60
2023/12/09 02:13:23;;;;;;;40.60;15.60;;;8.90;99.90;;;;;;5005992;28;20027;-60
2023/12/09 02:16:03;;;;;;;53.25;16.42;;;8.90;99.90;;;;;;5005817;28;20086;-59
2023/12/09 02:18:29;;;;;;;39.97;16.02;;;8.90;99.90;;;;;;5005886;28;20041;-59
2023/12/09 02:20:55;;;;;;;41.30;16.42;;;8.90;99.90;;;;;;5005736;28;20023;-59
2023/12/09 02:23:20;;;;;;;33.42;15.98;;;8.90;99.90;;;;;;5005681;28;20034;-59
2023/12/09 02:25:46;;;;;;;43.15;17.70;;;8.90;99.90;;;;;;5005662;28;20030;-59
2023/12/09 02:28:17;;;;;;;48.00;17.60;;;8.90;99.90;;;;;;5005479;28;20517;-59
2023/12/09 02:30:48;;;;;;;36.75;17.33;;;8.90;99.90;;;;;;5005606;28;20109;-59
2023/12/09 02:33:14;;;;;;;39.58;17.52;;;8.90;99.90;;;;;;5005691;28;20103;-59
2023/12/09 02:35:41;;;;;;;34.75;17.23;;;8.90;99.90;;;;;;5005492;28;20023;-59
2023/12/09 02:38:06;;;;;;;45.40;19.40;;;8.90;99.90;;;;;;5005708;28;20050;-59
2023/12/09 02:40:32;;;;;;;48.63;19.35;;;8.90;99.90;;;;;;4989153;28;20018;-59
2023/12/09 02:42:57;;;;;;;38.40;18.60;;;8.90;99.90;;;;;;5005616;28;20060;-59
2023/12/09 02:45:23;;;;;;;45.20;18.40;;;8.90;99.90;;;;;;5005444;28;20041;-59
2023/12/09 02:47:48;;;;;;;38.35;18.05;;;8.90;99.90;;;;;;5065346;28;20552;-59
2023/12/09 02:50:14;;;;;;;44.05;17.75;;;8.90;99.90;;;;;;5108623;28;20020;-59
2023/12/09 02:52:40;;;;;;;40.85;16.75;;;8.90;99.90;;;;;;5108301;28;20077;-59
2023/12/09 02:55:06;;;;;;;33.97;15.90;;;8.90;99.90;;;;;;5091461;28;20036;-59
2023/12/09 02:57:32;;;;;;;32.25;15.63;;;8.90;99.90;;;;;;5091224;28;20396;-59
2023/12/09 02:59:58;;;;;;;34.35;16.10;;;8.80;99.90;;;;;;5108270;28;20095;-59
2023/12/09 03:02:23;;;;;;;46.25;17.17;;;8.90;99.90;;;;;;5108065;28;20028;-59
2023/12/09 03:04:49;;;;;;;32.83;15.93;;;8.80;99.90;;;;;;5091372;28;20028;-59
2023/12/09 03:07:15;;;;;;;31.85;16.17;;;8.90;99.90;;;;;;5090265;28;20076;-59
2023/12/09 03:09:40;;;;;;;36.00;15.35;;;8.90;99.90;;;;;;5142030;27;20056;-59
2023/12/09 03:12:06;;;;;;;33.95;15.13;;;8.80;99.90;;;;;;5107828;28;20032;-59
2023/12/09 03:14:31;;;;;;;42.55;16.92;;;8.90;99.90;;;;;;5108079;28;20085;-59
2023/12/09 03:16:57;;;;;;;33.10;15.05;;;8.90;99.90;;;;;;5108821;28;20025;-59
2023/12/09 03:19:23;;;;;;;39.97;16.25;;;8.90;99.90;;;;;;5091304;28;20032;-58
2023/12/09 03:21:48;;;;;;;35.60;15.75;;;8.90;99.90;;;;;;5109114;28;20039;-59
2023/12/09 03:24:14;;;;;;;39.72;16.45;;;8.90;99.90;;;;;;5107572;28;20036;-59
2023/12/09 03:26:39;;;;;;;31.52;15.63;;;8.80;99.90;;;;;;5109115;28;20115;-59
2023/12/09 03:29:05;;;;;;;35.00;14.70;;;8.80;99.90;;;;;;5107748;28;20028;-59
2023/12/09 03:31:30;;;;;;;34.47;16.15;;;8.80;99.90;;;;;;5109038;28;20024;-59
2023/12/09 03:33:56;;;;;;;34.42;15.13;;;8.80;99.90;;;;;;5108143;28;20035;-59
2023/12/09 03:36:22;;;;;;;29.90;14.52;;;8.90;99.90;;;;;;5125042;28;20050;-59
2023/12/09 03:38:47;;;;;;;32.58;15.10;;;8.80;99.90;;;;;;5091745;28;20032;-59
2023/12/09 03:41:13;;;;;;;31.88;14.90;;;8.80;99.90;;;;;;5107834;28;20032;-59
2023/12/09 03:43:38;;;;;;;42.78;16.08;;;8.80;99.90;;;;;;5107793;28;20118;-59
2023/12/09 03:46:04;;;;;;;32.03;15.32;;;8.90;99.90;;;;;;5090656;28;20475;-59
2023/12/09 03:48:30;;;;;;;31.88;16.13;;;8.80;99.90;;;;;;5090445;28;20054;-59
2023/12/09 03:50:56;;;;;;;36.03;16.30;;;8.90;99.90;;;;;;5107287;28;20501;-59
2023/12/09 03:53:21;;;;;;;35.50;15.23;;;8.80;99.90;;;;;;5108275;28;20278;-59
2023/12/09 03:55:49;;;;;;;30.67;13.85;;;8.80;99.90;;;;;;5090421;28;20430;-59
2023/12/09 03:58:15;;;;;;;31.13;14.30;;;8.80;99.90;;;;;;5124047;28;20035;-59
2023/12/09 04:00:41;;;;;;;25.88;13.45;;;8.80;99.90;;;;;;5108003;28;20032;-59
2023/12/09 04:03:06;;;;;;;33.88;13.80;;;8.80;99.90;;;;;;5107972;28;20040;-59
2023/12/09 04:05:32;;;;;;;39.78;14.13;;;8.80;99.90;;;;;;5106895;28;20027;-59
2023/12/09 04:07:59;;;;;;;34.40;14.50;;;8.80;99.90;;;;;;5090007;28;20053;-60
2023/12/09 04:10:25;;;;;;;27.75;13.60;;;8.80;99.90;;;;;;5107768;28;20035;-59
2023/12/09 04:12:50;;;;;;;30.65;13.75;;;8.80;99.90;;;;;;5106980;28;20029;-58
2023/12/09 04:15:16;;;;;;;32.33;14.35;;;8.80;99.90;;;;;;5072863;28;20020;-59
2023/12/09 04:17:42;;;;;;;30.20;15.13;;;8.80;99.90;;;;;;5106835;28;20421;-59
2023/12/09 04:20:08;;;;;;;29.88;14.00;;;8.80;99.90;;;;;;5106348;28;20088;-59
2023/12/09 04:22:37;;;;;;;28.70;13.32;;;8.80;99.90;;;;;;5107577;28;20035;-59
2023/12/09 04:25:04;;;;;;;22.70;13.00;;;8.80;99.90;;;;;;5106487;28;20085;-59
2023/12/09 04:27:31;;;;;;;30.05;13.05;;;8.80;99.90;;;;;;5106350;28;20062;-59
2023/12/09 04:29:57;;;;;;;26.40;13.40;;;8.80;99.90;;;;;;5123492;28;20058;-59
2023/12/09 04:32:23;;;;;;;22.98;12.77;;;8.80;99.90;;;;;;5107731;28;20452;-59
2023/12/09 04:34:49;;;;;;;25.98;12.95;;;8.80;99.90;;;;;;5089425;28;20031;-58
2023/12/09 04:37:14;;;;;;;29.05;13.13;;;8.80;99.90;;;;;;5106311;28;20054;-59
2023/12/09 04:39:40;;;;;;;22.95;11.90;;;8.80;99.90;;;;;;5107509;28;20028;-59
2023/12/09 04:42:05;;;;;;;25.83;12.23;;;8.80;99.90;;;;;;5106175;28;20028;-59
2023/12/09 04:44:31;;;;;;;28.00;12.95;;;8.80;99.90;;;;;;5107500;28;20024;-59
2023/12/09 04:46:56;;;;;;;24.40;12.27;;;8.80;99.90;;;;;;5107324;28;20032;-59
2023/12/09 04:49:22;;;;;;;26.13;12.82;;;8.80;99.90;;;;;;5105939;28;20050;-59
2023/12/09 04:51:47;;;;;;;20.65;12.07;;;8.80;99.90;;;;;;5139988;27;20028;-59
2023/12/09 04:54:13;;;;;;;22.50;12.82;;;8.80;99.90;;;;;;5089245;28;20107;-59
2023/12/09 04:56:39;;;;;;;22.40;11.60;;;8.80;99.90;;;;;;5107101;28;20020;-59
2023/12/09 04:59:04;;;;;;;26.58;11.75;;;8.80;99.90;;;;;;5122853;28;20449;-59
2023/12/09 05:01:30;;;;;;;24.98;12.88;;;8.80;99.90;;;;;;5107136;28;20031;-58
2023/12/09 05:03:56;;;;;;;29.95;13.80;;;8.80;99.90;;;;;;5107501;28;20028;-58
2023/12/09 05:06:21;;;;;;;22.33;12.15;;;8.80;99.90;;;;;;5107481;28;20035;-58
2023/12/09 05:08:47;;;;;;;24.65;12.18;;;8.80;99.90;;;;;;5088595;28;20128;-58
2023/12/09 05:11:13;;;;;;;24.55;11.77;;;8.80;99.90;;;;;;5105767;28;20031;-58
2023/12/09 05:13:38;;;;;;;25.60;11.90;;;8.80;99.90;;;;;;5088812;28;20028;-59
2023/12/09 05:16:05;;;;;;;26.92;13.18;;;8.80;99.90;;;;;;5106898;28;20030;-59
2023/12/09 05:18:32;;;;;;;23.85;12.18;;;8.70;99.90;;;;;;5105654;28;20092;-59
2023/12/09 05:20:57;;;;;;;24.98;11.95;;;8.80;99.90;;;;;;5106905;28;20039;-59
2023/12/09 05:23:23;;;;;;;23.02;12.60;;;8.80;99.90;;;;;;5105867;28;20084;-58
2023/12/09 05:25:49;;;;;;;25.83;14.23;;;8.70;99.90;;;;;;5106865;28;20039;-59
2023/12/09 05:28:15;;;;;;;30.23;13.07;;;8.80;99.90;;;;;;5088342;28;20024;-59
2023/12/09 05:30:41;;;;;;;23.85;11.95;;;8.80;99.90;;;;;;5106155;28;20054;-59
2023/12/09 05:33:07;;;;;;;23.30;12.55;;;8.80;99.90;;;;;;5105656;28;20040;-59
2023/12/09 05:35:33;;;;;;;22.38;12.50;;;8.70;99.90;;;;;;5105459;28;20020;-59
2023/12/09 05:37:59;;;;;;;20.80;11.98;;;8.70;99.90;;;;;;5105501;28;20035;-59
2023/12/09 05:40:27;;;;;;;19.58;11.95;;;8.70;99.90;;;;;;5122160;28;20024;-59
2023/12/09 05:42:53;;;;;;;19.25;12.15;;;8.80;99.90;;;;;;5106297;28;20047;-60
2023/12/09 05:45:19;;;;;;;24.73;12.32;;;8.70;99.90;;;;;;5087943;28;20020;-57
2023/12/09 05:47:44;;;;;;;26.95;13.18;;;8.70;99.90;;;;;;5106349;28;20046;-59
2023/12/09 05:50:10;;;;;;;25.73;12.95;;;8.80;99.90;;;;;;5105267;28;20024;-59
2023/12/09 05:52:36;;;;;;;21.48;12.40;;;8.80;99.90;;;;;;5106768;28;20035;-60
2023/12/09 05:55:01;;;;;;;26.23;12.23;;;8.80;99.90;;;;;;5106633;28;20092;-59
2023/12/09 05:57:27;;;;;;;21.63;11.90;;;8.80;99.90;;;;;;5106700;28;20024;-58
2023/12/09 05:59:52;;;;;;;21.88;11.43;;;8.80;99.90;;;;;;5105311;28;20580;-59
2023/12/09 06:02:18;;;;;;;19.92;12.45;;;8.80;99.90;;;;;;5107201;28;20024;-59
2023/12/09 06:04:43;;;;;;;18.30;11.57;;;8.80;99.90;;;;;;5105050;28;20078;-59
2023/12/09 06:07:09;;;;;;;22.35;12.40;;;8.80;99.90;;;;;;5104726;28;20214;-59
2023/12/09 06:09:35;;;;;;;22.92;12.20;;;8.80;99.90;;;;;;5106126;28;20020;-59
2023/12/09 06:12:00;;;;;;;18.50;11.07;;;8.80;99.90;;;;;;5105083;28;20020;-59
2023/12/09 06:14:26;;;;;;;22.48;11.60;;;8.80;99.90;;;;;;5106464;28;20032;-59
2023/12/09 06:16:52;;;;;;;18.88;12.02;;;8.80;99.90;;;;;;5105228;28;20027;-59
2023/12/09 06:19:17;;;;;;;25.85;11.70;;;8.80;99.90;;;;;;5088137;28;20028;-59
2023/12/09 06:21:43;;;;;;;23.80;12.13;;;8.80;99.90;;;;;;5104868;28;20039;-59
2023/12/09 06:24:09;;;;;;;21.15;11.50;;;8.80;99.90;;;;;;5106214;28;20032;-59
2023/12/09 06:26:42;;;;;;;17.65;10.90;;;8.70;99.90;;;;;;5088203;28;20406;-59
2023/12/09 06:29:08;;;;;;;20.77;12.05;;;8.80;99.90;;;;;;5105917;28;20051;-59
2023/12/09 06:31:34;;;;;;;16.13;10.65;;;8.80;99.90;;;;;;5105052;28;20513;-59
2023/12/09 06:33:59;;;;;;;20.55;11.48;;;8.70;99.90;;;;;;5088248;28;20144;-59
2023/12/09 06:36:25;;;;;;;25.33;12.10;;;8.70;99.90;;;;;;5104842;28;20020;-59
2023/12/09 06:38:50;;;;;;;17.70;10.68;;;8.70;99.90;;;;;;5106248;28;20448;-59
2023/12/09 06:41:16;;;;;;;21.58;12.30;;;8.80;99.90;;;;;;5104603;28;20031;-59
2023/12/09 06:43:41;;;;;;;16.45;10.77;;;8.70;99.90;;;;;;5108514;28;20024;-59
2023/12/09 06:46:07;;;;;;;14.98;10.55;;;8.70;99.90;;;;;;5109725;28;20087;-59
2023/12/09 06:48:32;;;;;;;16.70;9.95;;;8.70;99.90;;;;;;5108632;28;20081;-59
2023/12/09 06:50:58;;;;;;;16.17;10.80;;;8.70;99.90;;;;;;5108262;28;20028;-59
2023/12/09 06:53:24;;;;;;;18.77;11.27;;;8.70;99.90;;;;;;5091412;28;20031;-59
2023/12/09 06:55:49;;;;;;;19.55;11.10;;;8.70;99.90;;;;;;5109403;28;20028;-59
2023/12/09 06:58:16;;;;;;;29.77;12.30;;;8.70;99.90;;;;;;5108367;28;20029;-59
2023/12/09 07:00:42;;;;;;;19.83;10.88;;;8.70;99.90;;;;;;5109395;28;20058;-59
2023/12/09 07:03:07;;;;;;;21.85;11.65;;;8.70;99.90;;;;;;5108195;28;20039;-60
2023/12/09 07:05:33;;;;;;;19.30;11.52;;;8.70;99.90;;;;;;5108306;28;20088;-59
2023/12/09 07:07:59;;;;;;;17.35;11.02;;;8.70;99.90;;;;;;5109479;28;20031;-59
2023/12/09 07:10:25;;;;;;;15.80;11.07;;;8.60;99.90;;;;;;5109093;28;20016;-59
2023/12/09 07:12:50;;;;;;;19.80;11.55;;;8.60;99.90;;;;;;5108056;28;20032;-59
2023/12/09 07:15:16;;;;;;;17.42;11.13;;;8.70;99.90;;;;;;5107876;28;20021;-59
2023/12/09 07:17:41;;;;;;;20.08;10.35;;;8.70;99.90;;;;;;5108944;28;20487;-59
2023/12/09 07:20:07;;;;;;;16.05;10.05;;;8.70;99.90;;;;;;5090931;28;20063;-59
2023/12/09 07:22:33;;;;;;;17.88;11.13;;;8.60;99.90;;;;;;5107820;28;20039;-59
2023/12/09 07:24:58;;;;;;;14.77;10.23;;;8.60;99.90;;;;;;5090827;28;20393;-59
2023/12/09 07:27:24;;;;;;;19.05;11.10;;;8.60;99.90;;;;;;5141707;27;20059;-59
2023/12/09 07:29:50;;;;;;;19.20;10.73;;;8.60;99.90;;;;;;5108788;28;20036;-59
2023/12/09 07:32:15;;;;;;;15.98;10.02;;;8.60;99.90;;;;;;5108996;28;20028;-59
2023/12/09 07:34:41;;;;;;;14.85;9.93;;;8.60;99.90;;;;;;5107866;28;20020;-60
2023/12/09 07:37:07;;;;;;;17.70;10.40;;;8.60;99.90;;;;;;5090837;28;20028;-60
2023/12/09 07:39:32;;;;;;;17.38;10.55;;;8.60;99.90;;;;;;5107446;28;20515;-59
2023/12/09 07:41:58;;;;;;;13.02;9.82;;;8.60;99.90;;;;;;5090477;28;20058;-59
2023/12/09 07:44:23;;;;;;;17.50;10.68;;;8.60;99.90;;;;;;5090473;28;20518;-59
2023/12/09 07:46:50;;;;;;;16.38;9.98;;;8.60;99.90;;;;;;5107372;28;20035;-59
2023/12/09 07:49:16;;;;;;;16.25;9.77;;;8.60;99.90;;;;;;5107300;28;20024;-59
2023/12/09 07:51:41;;;;;;;13.57;10.10;;;8.60;99.90;;;;;;5090395;28;20051;-59
2023/12/09 07:54:07;;;;;;;16.80;9.88;;;8.60;99.90;;;;;;5106733;28;20460;-59
2023/12/09 07:56:33;;;;;;;15.80;9.52;;;8.60;99.90;;;;;;5107520;28;20031;-59
2023/12/09 07:58:58;;;;;;;16.55;9.45;;;8.60;99.90;;;;;;5107205;28;20028;-59
2023/12/09 08:01:24;;;;;;;15.85;9.80;;;8.60;99.90;;;;;;5108337;28;20028;-59
2023/12/09 08:03:52;;;;;;;17.70;9.75;;;8.60;99.90;;;;;;5090288;28;20061;-59
2023/12/09 08:06:18;;;;;;;15.32;9.95;;;8.60;99.90;;;;;;5108230;28;20115;-59
2023/12/09 08:08:43;;;;;;;14.98;10.02;;;8.60;99.90;;;;;;5106926;28;20043;-57
2023/12/09 08:11:09;;;;;;;15.38;9.38;;;8.60;99.90;;;;;;5106863;28;20475;-59
2023/12/09 08:13:35;;;;;;;15.40;10.32;;;8.60;99.90;;;;;;5089877;28;20026;-59
2023/12/09 08:16:00;;;;;;;17.02;8.60;;;8.60;99.90;;;;;;5106575;28;20039;-59
2023/12/09 08:18:26;;;;;;;15.40;9.38;;;8.60;99.90;;;;;;5140653;27;20028;-59
2023/12/09 08:20:52;;;;;;;13.82;9.75;;;8.60;99.90;;;;;;5107788;28;20020;-59
2023/12/09 08:23:18;;;;;;;14.75;9.18;;;8.60;99.90;;;;;;5107991;28;20028;-59
2023/12/09 08:25:44;;;;;;;12.52;9.43;;;8.60;99.90;;;;;;5089521;28;20035;-59
2023/12/09 08:28:09;;;;;;;15.45;10.00;;;8.60;99.90;;;;;;5107895;28;20032;-59
2023/12/09 08:30:35;;;;;;;16.70;9.75;;;8.60;99.90;;;;;;5107744;28;20024;-59
2023/12/09 08:33:01;;;;;;;13.05;8.98;;;8.60;99.90;;;;;;5072852;28;20024;-59
2023/12/09 08:35:27;;;;;;;13.82;9.15;;;8.60;99.90;;;;;;5089432;28;20032;-59
2023/12/09 08:37:52;;;;;;;14.25;9.32;;;8.60;99.90;;;;;;5106391;28;20025;-59
2023/12/09 08:40:18;;;;;;;12.90;8.88;;;8.60;99.90;;;;;;5107411;28;20031;-57
2023/12/09 08:42:44;;;;;;;16.13;9.32;;;8.60;99.90;;;;;;5107498;28;20441;-59
2023/12/09 08:45:11;;;;;;;19.45;9.70;;;8.60;99.90;;;;;;5089356;28;20040;-59
2023/12/09 08:47:37;;;;;;;12.45;8.90;;;8.60;99.90;;;;;;5106157;28;20039;-59
2023/12/09 08:50:04;;;;;;;15.82;8.93;;;8.60;99.90;;;;;;5009797;28;20026;-59
2023/12/09 08:52:31;;;;;;;16.42;9.00;;;8.60;99.90;;;;;;5003431;28;20033;-59
2023/12/09 08:54:56;;;;;;;11.77;8.38;;;8.70;99.90;;;;;;5003667;28;20035;-59
2023/12/09 08:57:23;;;;;;;15.57;8.65;;;8.70;99.90;;;;;;4985336;28;20094;-59
2023/12/09 08:59:48;;;;;;;11.15;8.98;;;8.60;99.90;;;;;;4995133;28;21195;-59
2023/12/09 09:02:14;;;;;;;15.77;8.95;;;8.70;99.90;;;;;;4994661;28;20073;-59
2023/12/09 09:04:40;;;;;;;13.13;8.88;;;8.70;99.90;;;;;;5002786;28;20462;-59
2023/12/09 09:07:06;;;;;;;14.75;8.77;;;8.70;99.90;;;;;;4999048;28;20022;-59
2023/12/09 09:09:32;;;;;;;14.85;9.13;;;8.70;99.90;;;;;;5003885;28;20034;-59
2023/12/09 09:11:57;;;;;;;21.02;9.70;;;8.70;99.90;;;;;;4964998;28;20018;-59
2023/12/09 09:14:23;;;;;;;17.40;9.23;;;8.70;99.90;;;;;;4998568;28;20042;-50
2023/12/09 09:16:49;;;;;;;23.98;10.30;;;8.70;99.90;;;;;;5001643;28;20042;-50
2023/12/09 09:19:14;;;;;;;22.02;9.95;;;8.70;99.90;;;;;;4985761;28;20045;-50
2023/12/09 09:21:40;;;;;;;34.00;11.38;;;8.80;99.90;;;;;;5003680;28;20066;-50
2023/12/09 09:24:07;;;;;;;45.85;13.20;;;8.80;99.90;;;;;;4999455;28;20038;-50
2023/12/09 09:26:33;;;;;;;51.33;12.57;;;8.80;99.90;;;;;;4984295;28;20117;-50
2023/12/09 09:29:02;;;;;;;48.65;12.60;;;8.80;99.90;;;;;;4981635;28;20034;-50
2023/12/09 09:31:28;;;;;;;55.40;12.43;;;8.90;99.90;;;;;;4995724;28;20018;-50
2023/12/09 09:33:53;;;;;;;177.73;20.50;;;8.90;99.90;;;;;;5003991;28;20102;-50
2023/12/09 09:36:20;;;;;;;75.10;14.25;;;8.90;99.90;;;;;;4999959;28;20019;-51
2023/12/09 09:38:47;;;;;;;96.30;16.20;;;9.00;99.90;;;;;;4997217;28;20043;-50
2023/12/09 09:41:26;;;;;;;95.82;15.10;;;9.00;99.90;;;;;;5003115;28;20034;-50
2023/12/09 09:44:01;;;;;;;101.47;15.63;;;9.10;99.90;;;;;;4990504;28;20031;-50
2023/12/09 09:46:26;;;;;;;76.17;15.63;;;9.10;99.90;;;;;;5010842;28;20026;-50
2023/12/09 09:48:52;;;;;;;118.18;17.73;;;9.10;99.90;;;;;;4999384;28;20129;-50
2023/12/09 09:51:26;;;;;;;115.05;18.60;;;9.20;99.90;;;;;;4991607;28;20020;-50
2023/12/09 09:53:59;;;;;;;153.55;20.85;;;9.20;99.90;;;;;;4993520;28;20034;-50
2023/12/09 09:56:25;;;;;;;157.88;21.10;;;9.30;99.90;;;;;;4994867;28;20023;-50
2023/12/09 09:58:50;;;;;;;131.63;18.90;;;9.30;99.90;;;;;;4991956;28;20069;-50
2023/12/09 10:01:16;;;;;;;144.98;21.48;;;9.40;99.90;;;;;;4992244;28;20086;-49
2023/12/09 10:03:42;;;;;;;180.23;23.63;;;9.40;99.90;;;;;;4994215;28;20031;-50
2023/12/09 10:06:10;;;;;;;277.00;29.13;;;9.50;99.90;;;;;;4993121;28;20030;-50
2023/12/09 10:08:35;;;;;;;242.98;29.23;;;9.50;99.90;;;;;;4993970;28;20034;-50
2023/12/09 10:11:01;;;;;;;318.10;35.08;;;9.60;99.90;;;;;;4987979;28;20488;-50
2023/12/09 10:13:26;;;;;;;223.52;29.77;;;9.60;99.90;;;;;;4987134;28;20076;-51
2023/12/09 10:15:52;;;;;;;239.38;29.58;;;9.70;99.90;;;;;;4995860;28;20019;-50
2023/12/09 10:18:20;;;;;;;288.92;34.97;;;9.70;99.90;;;;;;5004192;28;20044;-47
2023/12/09 10:20:46;;;;;;;323.85;36.75;;;9.80;99.90;;;;;;4992029;28;20030;-50
2023/12/09 10:23:12;;;;;;;527.70;54.55;;;9.80;99.90;;;;;;4991875;28;20131;-50
2023/12/09 10:25:39;;;;;;;335.23;36.85;;;9.80;99.90;;;;;;4971482;28;20030;-50
2023/12/09 10:28:07;;;;;;;351.58;37.10;;;9.80;99.90;;;;;;4986009;28;20035;-51
2023/12/09 10:30:32;;;;;;;368.77;44.30;;;9.80;99.90;;;;;;5007318;28;20034;-51
2023/12/09 10:32:59;;;;;;;361.83;41.60;;;9.90;99.90;;;;;;4979130;28;20030;-50
2023/12/09 10:35:24;;;;;;;342.13;38.85;;;9.90;99.90;;;;;;4989585;28;20026;-51
2023/12/09 10:37:50;;;;;;;401.05;42.30;;;9.90;99.90;;;;;;5011961;28;20086;-50
2023/12/09 10:40:17;;;;;;;443.25;47.92;;;9.90;99.90;;;;;;4991684;28;20022;-50
2023/12/09 10:42:42;;;;;;;541.83;59.20;;;9.90;99.90;;;;;;5006812;28;20039;-50
2023/12/09 10:45:08;;;;;;;463.77;49.25;;;10.00;99.90;;;;;;5002734;28;20369;-50
2023/12/09 10:47:34;;;;;;;432.27;48.38;;;10.00;99.90;;;;;;5005809;28;20061;-50
2023/12/09 10:50:00;;;;;;;499.27;51.95;;;10.00;99.90;;;;;;5004346;28;20367;-50
2023/12/09 10:52:26;;;;;;;429.08;49.53;;;10.00;99.90;;;;;;4989864;28;20026;-50
2023/12/09 10:54:52;;;;;;;501.80;55.55;;;10.00;99.90;;;;;;5007221;28;20094;-50
2023/12/09 10:57:18;;;;;;;500.38;53.50;;;10.00;99.90;;;;;;4992702;28;20030;-50
2023/12/09 10:59:44;;;;;;;411.40;50.20;;;10.00;99.90;;;;;;4984934;28;20034;-50
2023/12/09 11:02:09;;;;;;;421.60;49.85;;;10.00;99.90;;;;;;5006137;28;20101;-50
2023/12/09 11:04:35;;;;;;;451.75;52.42;;;10.00;99.90;;;;;;4992158;28;20030;-50
2023/12/09 11:07:03;;;;;;;434.77;52.55;;;10.00;99.90;;;;;;4982228;28;20061;-50
2023/12/09 11:09:29;;;;;;;470.85;55.78;;;10.00;99.90;;;;;;4995142;28;20042;-50
2023/12/09 11:11:55;;;;;;;512.28;59.15;;;10.10;99.90;;;;;;5005117;28;20030;-50
2023/12/09 11:14:25;;;;;;;544.50;59.78;;;10.10;99.90;;;;;;5003277;28;20095;-50
2023/12/09 11:16:50;;;;;;;490.00;55.55;;;10.20;99.90;;;;;;5005134;28;20031;-50
2023/12/09 11:19:16;;;;;;;495.92;58.88;;;10.20;99.90;;;;;;5003419;28;20031;-50
2023/12/09 11:21:45;;;;;;;453.80;53.65;;;10.20;99.90;;;;;;5002726;28;20026;-51
2023/12/09 11:24:11;;;;;;;497.33;54.53;;;10.20;99.90;;;;;;5009537;28;20033;-50
2023/12/09 11:26:40;;;;;;;498.45;56.83;;;10.20;99.90;;;;;;5023638;28;20045;-51
2023/12/09 11:29:09;;;;;;;776.33;101.13;;;10.30;99.90;;;;;;5020699;28;20053;-50
2023/12/09 11:31:39;;;;;;;504.60;57.42;;;10.30;99.90;;;;;;5008922;28;20072;-50
2023/12/09 11:34:06;;;;;;;480.02;57.58;;;10.30;99.90;;;;;;5019189;28;20496;-50
2023/12/09 11:36:35;;;;;;;449.80;50.55;;;10.30;99.90;;;;;;5005154;28;20022;-50
2023/12/09 11:39:02;;;;;;;429.48;52.22;;;10.30;99.90;;;;;;5004541;28;20031;-50
2023/12/09 11:41:27;;;;;;;426.48;51.13;;;10.30;99.90;;;;;;5001362;28;20031;-50
2023/12/09 11:43:53;;;;;;;370.38;45.67;;;10.30;99.90;;;;;;4996826;28;20092;-50
2023/12/09 11:46:19;;;;;;;361.13;42.72;;;10.30;99.90;;;;;;4984323;28;20037;-50
2023/12/09 11:48:45;;;;;;;395.08;47.55;;;10.30;99.90;;;;;;5003249;28;20034;-50
2023/12/09 11:51:10;;;;;;;363.80;44.28;;;10.30;99.90;;;;;;5001548;28;20611;-50
2023/12/09 11:53:36;;;;;;;377.90;44.85;;;10.20;99.90;;;;;;4999931;28;20042;-50
2023/12/09 11:56:01;;;;;;;333.60;41.13;;;10.20;99.90;;;;;;5000086;28;20083;-50
2023/12/09 11:58:27;;;;;;;334.25;39.42;;;10.20;99.90;;;;;;5001372;28;20108;-50
2023/12/09 12:00:53;;;;;;;329.70;41.95;;;10.20;99.90;;;;;;5002236;28;20030;-50
2023/12/09 12:03:19;;;;;;;327.73;40.20;;;10.20;99.90;;;;;;5001833;28;20035;-51
2023/12/09 12:05:44;;;;;;;329.33;38.78;;;10.20;99.90;;;;;;4982052;28;20031;-50
2023/12/09 12:08:15;;;;;;;317.55;40.72;;;10.20;99.90;;;;;;4988159;28;20038;-50
2023/12/09 12:10:41;;;;;;;336.58;41.25;;;10.20;99.90;;;;;;5000372;28;20093;-51
2023/12/09 12:13:07;;;;;;;409.95;44.65;;;10.30;99.90;;;;;;5000024;28;20042;-50
2023/12/09 12:15:32;;;;;;;316.40;39.45;;;10.30;99.90;;;;;;5000188;28;20052;-50
2023/12/09 12:18:00;;;;;;;334.02;43.70;;;10.30;99.90;;;;;;5001385;28;20031;-50
2023/12/09 12:20:26;;;;;;;327.83;41.70;;;10.20;99.90;;;;;;5000693;28;20019;-50
2023/12/09 12:22:51;;;;;;;286.60;36.63;;;10.30;99.90;;;;;;5002410;28;20034;-50
2023/12/09 12:25:17;;;;;;;234.23;32.38;;;10.20;99.90;;;;;;5003315;28;20048;-50
2023/12/09 12:27:44;;;;;;;235.73;32.63;;;10.20;99.90;;;;;;4986959;28;20478;-50